Terminal Aerodrome Forecast
Issued by NWS Billings, MT

Home | Current Version | Previous Version | Text Only | Print | Product List | Glossary On
Versions: 1 2 3 4 5 6 7 8 9 10 11 12 13 14 15 16
000
FTUS45 KBYZ 170901 AAA
TAFSHR
TAF AMD
KSHR 170901Z 1709/1806 33005KT P6SM OVC002
     FM171200 14006KT P6SM BKN080
     FM171800 17008KT P6SM BKN100=

USA.gov is the U.S. government's official web portal to all federal, state and local government web resources and services.